createdAt,value
2023-04-27T16:27:08.386Z,14.62
2023-04-27T16:29:36.664Z,14.56
2023-04-27T16:32:03.976Z,14.53
2023-04-27T16:34:31.264Z,14.44
2023-04-27T16:36:58.952Z,14.40
2023-04-27T16:39:26.103Z,14.37
2023-04-27T16:41:53.162Z,14.27
2023-04-27T16:44:21.009Z,14.24
2023-04-27T16:46:50.592Z,14.23
2023-04-27T16:49:18.118Z,14.21
2023-04-27T16:51:45.235Z,14.14
2023-04-27T16:54:12.828Z,14.06
2023-04-27T16:56:40.083Z,13.93
2023-04-27T16:59:07.685Z,13.83
2023-04-27T17:01:34.650Z,13.71
2023-04-27T17:04:02.320Z,13.54
2023-04-27T17:06:30.048Z,13.40
2023-04-27T17:08:57.663Z,13.30
2023-04-27T17:11:24.961Z,13.15
2023-04-27T17:13:51.853Z,13.02
2023-04-27T17:16:19.677Z,12.85
2023-04-27T17:18:47.127Z,12.71
2023-04-27T17:21:14.593Z,12.52
2023-04-27T17:23:41.580Z,12.33
2023-04-27T17:26:08.670Z,12.19
2023-04-27T17:28:36.168Z,12.13
2023-04-27T17:31:03.909Z,12.19
2023-04-27T17:33:30.929Z,12.13
2023-04-27T17:35:58.029Z,12.01
2023-04-27T17:38:24.964Z,12.00
2023-04-27T17:40:51.867Z,11.91
2023-04-27T17:43:18.778Z,11.81
2023-04-27T17:45:45.810Z,11.75
2023-04-27T17:48:12.972Z,11.71
2023-04-27T17:50:41.041Z,11.61
2023-04-27T17:53:08.059Z,11.45
2023-04-27T17:55:35.103Z,11.26
2023-04-27T17:58:04.076Z,11.11
2023-04-27T18:00:31.087Z,10.98
2023-04-27T18:02:58.201Z,10.85
2023-04-27T18:05:25.193Z,10.68
2023-04-27T18:07:52.229Z,10.53
2023-04-27T18:10:19.148Z,10.38
2023-04-27T18:12:46.059Z,10.22
2023-04-27T18:15:12.896Z,10.08
2023-04-27T18:17:39.994Z,9.94
2023-04-27T18:20:10.138Z,9.79
2023-04-27T18:22:40.184Z,9.64
2023-04-27T18:25:11.082Z,9.51
2023-04-27T18:27:38.146Z,9.38
2023-04-27T18:30:06.891Z,9.21
2023-04-27T18:32:34.899Z,9.04
2023-04-27T18:35:02.758Z,8.93
2023-04-27T18:37:30.789Z,8.81
2023-04-27T18:39:57.633Z,8.73
2023-04-27T18:42:24.730Z,8.61
2023-04-27T18:45:00.793Z,8.50
2023-04-27T18:47:28.388Z,8.41
2023-04-27T18:49:55.187Z,8.31
2023-04-27T18:52:22.573Z,8.18
2023-04-27T18:54:49.484Z,8.09
2023-04-27T18:57:16.352Z,7.99
2023-04-27T18:59:43.623Z,7.88
2023-04-27T19:02:10.502Z,7.82
2023-04-27T19:04:37.760Z,7.76
2023-04-27T19:07:04.742Z,7.70
2023-04-27T19:09:32.939Z,7.60
2023-04-27T19:12:03.404Z,7.50
2023-04-27T19:14:32.206Z,7.41
2023-04-27T19:16:59.317Z,7.31
2023-04-27T19:19:26.764Z,7.23
2023-04-27T19:21:54.270Z,7.15
2023-04-27T19:24:21.390Z,7.09
2023-04-27T19:26:48.527Z,6.99
2023-04-27T19:29:17.217Z,6.90
2023-04-27T19:31:44.438Z,6.80
2023-04-27T19:34:11.620Z,6.73
2023-04-27T19:36:38.601Z,6.64
2023-04-27T19:39:05.626Z,6.58
2023-04-27T19:41:33.258Z,6.54
2023-04-27T19:44:00.836Z,6.51
2023-04-27T19:46:27.723Z,6.46
2023-04-27T19:48:54.676Z,6.40
2023-04-27T19:51:21.649Z,6.36
2023-04-27T19:53:49.472Z,6.33
2023-04-27T19:56:16.419Z,6.28
2023-04-27T19:58:43.257Z,6.22
2023-04-27T20:01:11.762Z,6.16
2023-04-27T20:03:41.025Z,6.09
2023-04-27T20:06:10.171Z,6.02
2023-04-27T20:08:37.410Z,5.96
2023-04-27T20:11:04.566Z,5.93
2023-04-27T20:13:31.655Z,5.92
2023-04-27T20:15:59.232Z,5.87
2023-04-27T20:18:28.590Z,5.80
2023-04-27T20:20:55.508Z,5.75
2023-04-27T20:23:22.359Z,5.71
2023-04-27T20:25:49.337Z,5.68
2023-04-27T20:28:16.497Z,5.65
2023-04-27T20:30:43.562Z,5.65
2023-04-27T20:33:13.303Z,5.61
2023-04-27T20:35:40.385Z,5.60
2023-04-27T20:38:07.602Z,5.56
2023-04-27T20:40:35.326Z,5.52
2023-04-27T20:43:02.362Z,5.48
2023-04-27T20:45:31.101Z,5.38
2023-04-27T20:47:58.620Z,5.32
2023-04-27T20:50:26.690Z,5.23
2023-04-27T20:52:53.761Z,5.16
2023-04-27T20:55:20.948Z,5.07
2023-04-27T20:57:49.057Z,5.00
2023-04-27T21:00:16.506Z,4.92
2023-04-27T21:02:44.199Z,4.90
2023-04-27T21:05:11.620Z,4.88
2023-04-27T21:07:39.238Z,4.83
2023-04-27T21:10:07.103Z,4.81
2023-04-27T21:12:34.222Z,4.78
2023-04-27T21:15:01.496Z,4.75
2023-04-27T21:17:29.007Z,4.72
2023-04-27T21:19:58.085Z,4.68
2023-04-27T21:22:25.026Z,4.63
2023-04-27T21:24:52.670Z,4.58
2023-04-27T21:27:19.623Z,4.52
2023-04-27T21:29:46.565Z,4.50
2023-04-27T21:32:13.463Z,4.48
2023-04-27T21:34:40.313Z,4.45
2023-04-27T21:37:07.800Z,4.45
2023-04-27T21:39:34.759Z,4.42
2023-04-27T21:42:01.710Z,4.37
2023-04-27T21:44:28.633Z,4.32
2023-04-27T21:46:55.502Z,4.27
2023-04-27T21:49:22.359Z,4.20
2023-04-27T21:51:49.257Z,4.13
2023-04-27T21:54:16.473Z,4.07
2023-04-27T21:56:43.422Z,4.03
2023-04-27T21:59:10.436Z,3.97
2023-04-27T22:01:37.923Z,3.89
2023-04-27T22:04:06.476Z,3.86
2023-04-27T22:06:33.626Z,3.82
2023-04-27T22:09:01.234Z,3.77
2023-04-27T22:11:28.275Z,3.76
2023-04-27T22:13:55.208Z,3.72
2023-04-27T22:16:22.194Z,3.68
2023-04-27T22:18:49.140Z,3.61
2023-04-27T22:21:16.129Z,3.58
2023-04-27T22:23:43.096Z,3.56
2023-04-27T22:26:09.982Z,3.54
2023-04-27T22:28:36.864Z,3.50
2023-04-27T22:31:03.712Z,3.44
2023-04-27T22:33:32.090Z,3.42
2023-04-27T22:35:59.962Z,3.35
2023-04-27T22:38:26.811Z,3.31
2023-04-27T22:40:54.282Z,3.30
2023-04-27T22:43:21.135Z,3.32
2023-04-27T22:45:48.104Z,3.34
2023-04-27T22:48:14.944Z,3.34
2023-04-27T22:50:41.835Z,3.32
2023-04-27T22:53:08.823Z,3.27
2023-04-27T22:55:35.682Z,3.25
2023-04-27T22:58:02.647Z,3.20
2023-04-27T23:00:29.567Z,3.15
2023-04-27T23:02:57.038Z,3.11
2023-04-27T23:05:24.731Z,3.06
2023-04-27T23:07:52.229Z,3.00
2023-04-27T23:10:19.119Z,2.93
2023-04-27T23:12:46.637Z,2.88
2023-04-27T23:15:15.278Z,2.87
2023-04-27T23:17:42.365Z,2.83
2023-04-27T23:20:20.390Z,2.81
2023-04-27T23:22:55.063Z,2.78
2023-04-27T23:25:22.570Z,2.79
2023-04-27T23:27:51.932Z,2.74
2023-04-27T23:30:20.942Z,2.74
2023-04-27T23:32:47.802Z,2.73
2023-04-27T23:35:14.731Z,2.68
2023-04-27T23:37:41.598Z,2.65
2023-04-27T23:40:09.050Z,2.62
2023-04-27T23:42:36.216Z,2.59
2023-04-27T23:45:04.180Z,2.59
2023-04-27T23:47:31.332Z,2.57
2023-04-27T23:49:58.964Z,2.54
2023-04-27T23:52:25.814Z,2.50
2023-04-27T23:54:52.737Z,2.47
2023-04-27T23:57:19.700Z,2.43
2023-04-27T23:59:46.893Z,2.40
